Badlands National Park, SD

1:07 PM MDT on September 16, 2014 (GMT -0600)
RAWS PINNACLES SD US | Change Station
CLOSE
Current Station
Personal Weather Station
Location: Wall, SD
Elevation: 3080 ft
Nearby Weather Stations

Elev 3080 ft 43.88 °N, 102.24 °W | Updated 47 minutes ago

Clear
Clear
75 °F
Feels Like 77 °F
N
6
Wind Variable Wind from South
Gusts 9.0 mph

Today
High -- | Low -- °F
--% Chance of Precip.
Yesterday
High -- | Low -- °F
Precip. -- in
6:28 AM 6:56 PM
Last Quarter, 43% visible
Pressure 29.94 in
Visibility 10.0 miles
Clouds Clear
Heat Index 77 °F
Dew Point 47 °F
Humidity 37%
Rainfall 0.00 in
Snow Depth 0 in
UV 7 out of 12
Pollen 5.80 out of 12
Air Quality Not available.
Flu Activity Not available.
METAR KPHP 161855Z AUTO 17005KT 10SM CLR 24/11 A2996 RMK AO2 SLP136 T02390111

More Conditions Fewer Conditions

Pressure 29.94 in
Visibility 10.0 miles
Clouds Clear
Heat Index 77 °F
Dew Point 47 °F
Humidity 37%
Rainfall 0.00 in
Snow Depth 0 in
UV 7 out of 12
Pollen 5.80 out of 12
Air Quality Not available.
Flu Activity Not available.
METAR KPHP 161855Z AUTO 17005KT 10SM CLR 24/11 A2996 RMK AO2 SLP136 T02390111

More Conditions Fewer Conditions

10-Day Weather Forecast

Almanac

Astronomy

Sep. 16, 2014 Rise Set
Actual Time 6:28 AM MDT 6:56 PM MDT
Civil Twilight 5:59 AM MDT 7:24 PM MDT
Nautical Twilight 5:25 AM MDT 7:58 PM MDT
Astronomical Twilight 4:50 AM MDT 8:33 PM MDT
Moon No Moon Rise 2:29 PM MDT
Length of Visible Light 13h 25m
Length of Day
12h 27m
Tomorrow will be 2m 57s shorter.
Last Quarter, 43% of the Moon is Illuminated
Today
Last Quarter
Sep 24
New
Oct 1
First Quarter
Oct 8
Full
Oct 15
Last Quarter

Today's Extremes

State Highs State Lows

Community

WunderPhotos

Upload Photos

1,753,860 photos uploaded!

WunderBlogs® & News

Nearby

Snow Depth

Station Depth Elevation
Blind Park 0 in 6890 ft

Earthquake Activity

City Distance Mag. Time & Date
No recent earthquake activity has been reported nearby.
Minimum magnitude displayed is 2.5.

Coastal Water Temperatures

Place Temperature
No Stations Reporting

Nearby Weather Stations